sensor_id;sensor_type;location;lat;lon;timestamp;P1;durP1;ratioP1;P2;durP2;ratioP2
71202;SDS011;58929;47.490;19.090;2023-03-01T00:01:41;41.92;;;23.20;;
71202;SDS011;58929;47.490;19.090;2023-03-01T00:04:11;40.28;;;24.33;;
71202;SDS011;58929;47.490;19.090;2023-03-01T00:06:38;40.45;;;23.85;;
71202;SDS011;58929;47.490;19.090;2023-03-01T00:09:06;43.05;;;26.50;;
71202;SDS011;58929;47.490;19.090;2023-03-01T00:11:34;39.85;;;25.17;;
71202;SDS011;58929;47.490;19.090;2023-03-01T00:14:03;40.60;;;25.95;;
71202;SDS011;58929;47.490;19.090;2023-03-01T00:16:36;39.60;;;24.63;;
71202;SDS011;58929;47.490;19.090;2023-03-01T00:19:05;36.35;;;22.92;;
71202;SDS011;58929;47.490;19.090;2023-03-01T00:21:34;40.10;;;24.65;;
71202;SDS011;58929;47.490;19.090;2023-03-01T00:24:03;41.67;;;25.73;;
71202;SDS011;58929;47.490;19.090;2023-03-01T00:26:31;43.20;;;24.73;;
71202;SDS011;58929;47.490;19.090;2023-03-01T00:28:59;36.65;;;23.77;;
71202;SDS011;58929;47.490;19.090;2023-03-01T00:31:28;36.28;;;22.85;;
71202;SDS011;58929;47.490;19.090;2023-03-01T00:33:57;36.25;;;21.35;;
71202;SDS011;58929;47.490;19.090;2023-03-01T00:36:29;32.67;;;21.73;;
71202;SDS011;58929;47.490;19.090;2023-03-01T00:39:00;35.05;;;22.55;;
71202;SDS011;58929;47.490;19.090;2023-03-01T00:41:28;31.13;;;20.80;;
71202;SDS011;58929;47.490;19.090;2023-03-01T00:43:56;30.30;;;21.05;;
71202;SDS011;58929;47.490;19.090;2023-03-01T00:46:24;34.03;;;21.08;;
71202;SDS011;58929;47.490;19.090;2023-03-01T00:48:55;33.55;;;19.10;;
71202;SDS011;58929;47.490;19.090;2023-03-01T00:51:23;31.27;;;19.98;;
71202;SDS011;58929;47.490;19.090;2023-03-01T00:53:53;30.80;;;20.38;;
71202;SDS011;58929;47.490;19.090;2023-03-01T00:56:22;29.65;;;19.85;;
71202;SDS011;58929;47.490;19.090;2023-03-01T00:58:50;30.80;;;19.52;;
71202;SDS011;58929;47.490;19.090;2023-03-01T01:01:19;28.02;;;19.40;;
71202;SDS011;58929;47.490;19.090;2023-03-01T01:03:48;30.23;;;19.90;;
71202;SDS011;58929;47.490;19.090;2023-03-01T01:06:17;34.63;;;20.88;;
71202;SDS011;58929;47.490;19.090;2023-03-01T01:08:45;27.10;;;18.38;;
71202;SDS011;58929;47.490;19.090;2023-03-01T01:11:14;29.42;;;19.63;;
71202;SDS011;58929;47.490;19.090;2023-03-01T01:13:44;29.67;;;19.75;;
71202;SDS011;58929;47.490;19.090;2023-03-01T01:16:13;33.00;;;20.52;;
71202;SDS011;58929;47.490;19.090;2023-03-01T01:18:41;31.17;;;21.25;;
71202;SDS011;58929;47.490;19.090;2023-03-01T01:21:10;29.92;;;20.00;;
71202;SDS011;58929;47.490;19.090;2023-03-01T01:23:39;30.20;;;19.33;;
71202;SDS011;58929;47.490;19.090;2023-03-01T01:26:09;27.60;;;18.15;;
71202;SDS011;58929;47.490;19.090;2023-03-01T01:28:37;27.52;;;18.75;;
71202;SDS011;58929;47.490;19.090;2023-03-01T01:31:07;33.17;;;20.25;;
71202;SDS011;58929;47.490;19.090;2023-03-01T01:33:35;38.63;;;19.65;;
71202;SDS011;58929;47.490;19.090;2023-03-01T01:36:04;27.73;;;17.88;;
71202;SDS011;58929;47.490;19.090;2023-03-01T01:38:32;25.13;;;16.98;;
71202;SDS011;58929;47.490;19.090;2023-03-01T01:41:00;31.92;;;17.92;;
71202;SDS011;58929;47.490;19.090;2023-03-01T01:43:28;26.50;;;17.20;;
71202;SDS011;58929;47.490;19.090;2023-03-01T01:45:57;29.98;;;18.13;;
71202;SDS011;58929;47.490;19.090;2023-03-01T01:48:28;25.95;;;17.98;;
71202;SDS011;58929;47.490;19.090;2023-03-01T01:51:07;25.13;;;17.58;;
71202;SDS011;58929;47.490;19.090;2023-03-01T01:53:37;27.20;;;17.73;;
71202;SDS011;58929;47.490;19.090;2023-03-01T01:56:07;26.65;;;18.48;;
71202;SDS011;58929;47.490;19.090;2023-03-01T01:58:36;26.42;;;15.98;;
71202;SDS011;58929;47.490;19.090;2023-03-01T02:01:04;27.70;;;17.52;;
71202;SDS011;58929;47.490;19.090;2023-03-01T02:03:34;27.60;;;17.38;;
71202;SDS011;58929;47.490;19.090;2023-03-01T02:06:07;27.27;;;18.15;;
71202;SDS011;58929;47.490;19.090;2023-03-01T02:08:40;27.25;;;18.17;;
71202;SDS011;58929;47.490;19.090;2023-03-01T02:11:09;29.60;;;17.60;;
71202;SDS011;58929;47.490;19.090;2023-03-01T02:13:38;27.33;;;17.83;;
71202;SDS011;58929;47.490;19.090;2023-03-01T02:16:08;28.92;;;18.45;;
71202;SDS011;58929;47.490;19.090;2023-03-01T02:18:38;31.63;;;17.38;;
71202;SDS011;58929;47.490;19.090;2023-03-01T02:21:13;25.92;;;17.75;;
71202;SDS011;58929;47.490;19.090;2023-03-01T02:23:43;30.23;;;19.25;;
71202;SDS011;58929;47.490;19.090;2023-03-01T02:26:15;26.65;;;18.23;;
71202;SDS011;58929;47.490;19.090;2023-03-01T02:28:46;30.52;;;17.92;;
71202;SDS011;58929;47.490;19.090;2023-03-01T02:31:16;31.77;;;17.83;;
71202;SDS011;58929;47.490;19.090;2023-03-01T02:34:03;25.58;;;16.77;;
71202;SDS011;58929;47.490;19.090;2023-03-01T02:36:36;30.08;;;18.42;;
71202;SDS011;58929;47.490;19.090;2023-03-01T02:39:05;24.83;;;16.40;;
71202;SDS011;58929;47.490;19.090;2023-03-01T02:41:35;23.08;;;16.40;;
71202;SDS011;58929;47.490;19.090;2023-03-01T02:44:05;23.77;;;16.38;;
71202;SDS011;58929;47.490;19.090;2023-03-01T02:46:41;28.45;;;17.52;;
71202;SDS011;58929;47.490;19.090;2023-03-01T02:49:21;23.80;;;16.80;;
71202;SDS011;58929;47.490;19.090;2023-03-01T02:54:33;26.98;;;16.33;;
71202;SDS011;58929;47.490;19.090;2023-03-01T02:57:04;22.00;;;15.93;;
71202;SDS011;58929;47.490;19.090;2023-03-01T02:59:35;29.75;;;17.30;;
71202;SDS011;58929;47.490;19.090;2023-03-01T03:02:17;24.92;;;15.02;;
71202;SDS011;58929;47.490;19.090;2023-03-01T03:04:47;23.73;;;14.88;;
71202;SDS011;58929;47.490;19.090;2023-03-01T03:07:15;21.45;;;14.75;;
71202;SDS011;58929;47.490;19.090;2023-03-01T03:09:44;24.65;;;15.88;;
71202;SDS011;58929;47.490;19.090;2023-03-01T03:12:12;26.33;;;16.27;;
71202;SDS011;58929;47.490;19.090;2023-03-01T03:14:41;22.95;;;14.68;;
71202;SDS011;58929;47.490;19.090;2023-03-01T03:17:09;19.23;;;14.38;;
71202;SDS011;58929;47.490;19.090;2023-03-01T03:19:37;23.00;;;14.55;;
71202;SDS011;58929;47.490;19.090;2023-03-01T03:22:05;19.85;;;14.32;;
71202;SDS011;58929;47.490;19.090;2023-03-01T03:24:35;24.38;;;14.95;;
71202;SDS011;58929;47.490;19.090;2023-03-01T03:27:04;22.20;;;14.43;;
71202;SDS011;58929;47.490;19.090;2023-03-01T03:29:33;22.52;;;14.55;;
71202;SDS011;58929;47.490;19.090;2023-03-01T03:32:02;25.05;;;15.52;;
71202;SDS011;58929;47.490;19.090;2023-03-01T03:34:31;24.38;;;14.43;;
71202;SDS011;58929;47.490;19.090;2023-03-01T03:36:59;25.27;;;15.23;;
71202;SDS011;58929;47.490;19.090;2023-03-01T03:39:26;26.90;;;16.25;;
71202;SDS011;58929;47.490;19.090;2023-03-01T03:41:55;26.90;;;16.15;;
71202;SDS011;58929;47.490;19.090;2023-03-01T03:44:23;28.52;;;16.20;;
71202;SDS011;58929;47.490;19.090;2023-03-01T03:46:51;22.00;;;15.48;;
71202;SDS011;58929;47.490;19.090;2023-03-01T03:49:20;29.52;;;16.45;;
71202;SDS011;58929;47.490;19.090;2023-03-01T03:51:48;23.35;;;16.50;;
71202;SDS011;58929;47.490;19.090;2023-03-01T03:54:15;27.13;;;16.25;;
71202;SDS011;58929;47.490;19.090;2023-03-01T03:56:43;26.35;;;16.08;;
71202;SDS011;58929;47.490;19.090;2023-03-01T03:59:11;27.67;;;16.35;;
71202;SDS011;58929;47.490;19.090;2023-03-01T04:01:39;27.17;;;16.33;;
71202;SDS011;58929;47.490;19.090;2023-03-01T04:04:08;22.23;;;15.52;;
71202;SDS011;58929;47.490;19.090;2023-03-01T04:06:37;22.90;;;15.38;;
71202;SDS011;58929;47.490;19.090;2023-03-01T04:09:05;23.05;;;16.25;;
71202;SDS011;58929;47.490;19.090;2023-03-01T04:11:33;23.17;;;15.60;;
71202;SDS011;58929;47.490;19.090;2023-03-01T04:14:01;25.92;;;16.77;;
71202;SDS011;58929;47.490;19.090;2023-03-01T04:16:30;23.35;;;15.15;;
71202;SDS011;58929;47.490;19.090;2023-03-01T04:18:59;21.67;;;14.85;;
71202;SDS011;58929;47.490;19.090;2023-03-01T04:21:27;24.58;;;15.80;;
71202;SDS011;58929;47.490;19.090;2023-03-01T04:23:56;21.33;;;14.68;;
71202;SDS011;58929;47.490;19.090;2023-03-01T04:26:24;20.33;;;14.63;;
71202;SDS011;58929;47.490;19.090;2023-03-01T04:28:53;22.65;;;14.43;;
71202;SDS011;58929;47.490;19.090;2023-03-01T04:31:21;26.83;;;15.88;;
71202;SDS011;58929;47.490;19.090;2023-03-01T04:33:49;27.35;;;16.20;;
71202;SDS011;58929;47.490;19.090;2023-03-01T04:36:19;24.98;;;17.38;;
71202;SDS011;58929;47.490;19.090;2023-03-01T04:38:48;23.02;;;15.30;;
71202;SDS011;58929;47.490;19.090;2023-03-01T04:41:17;23.83;;;15.55;;
71202;SDS011;58929;47.490;19.090;2023-03-01T04:43:45;26.08;;;15.95;;
71202;SDS011;58929;47.490;19.090;2023-03-01T04:46:14;24.98;;;14.88;;
71202;SDS011;58929;47.490;19.090;2023-03-01T04:48:42;27.75;;;15.02;;
71202;SDS011;58929;47.490;19.090;2023-03-01T04:51:10;21.20;;;14.30;;
71202;SDS011;58929;47.490;19.090;2023-03-01T04:53:40;27.38;;;16.23;;
71202;SDS011;58929;47.490;19.090;2023-03-01T04:56:08;21.35;;;14.85;;
71202;SDS011;58929;47.490;19.090;2023-03-01T04:58:38;24.50;;;15.13;;
71202;SDS011;58929;47.490;19.090;2023-03-01T05:01:09;22.33;;;14.68;;
71202;SDS011;58929;47.490;19.090;2023-03-01T05:03:42;27.08;;;15.68;;
71202;SDS011;58929;47.490;19.090;2023-03-01T05:06:11;26.73;;;15.75;;
71202;SDS011;58929;47.490;19.090;2023-03-01T05:08:39;22.10;;;14.85;;
71202;SDS011;58929;47.490;19.090;2023-03-01T05:11:08;26.42;;;16.00;;
71202;SDS011;58929;47.490;19.090;2023-03-01T05:13:38;27.38;;;15.43;;
71202;SDS011;58929;47.490;19.090;2023-03-01T05:16:07;24.98;;;15.75;;
71202;SDS011;58929;47.490;19.090;2023-03-01T05:18:38;25.45;;;15.55;;
71202;SDS011;58929;47.490;19.090;2023-03-01T05:21:06;30.90;;;16.15;;
71202;SDS011;58929;47.490;19.090;2023-03-01T05:23:35;27.17;;;16.17;;
71202;SDS011;58929;47.490;19.090;2023-03-01T05:26:04;28.83;;;16.13;;
71202;SDS011;58929;47.490;19.090;2023-03-01T05:28:38;30.33;;;17.42;;
71202;SDS011;58929;47.490;19.090;2023-03-01T05:31:06;26.58;;;16.95;;
71202;SDS011;58929;47.490;19.090;2023-03-01T05:33:36;23.35;;;15.23;;
71202;SDS011;58929;47.490;19.090;2023-03-01T05:36:04;21.58;;;14.77;;
71202;SDS011;58929;47.490;19.090;2023-03-01T05:38:33;23.58;;;15.10;;
71202;SDS011;58929;47.490;19.090;2023-03-01T05:41:01;21.83;;;14.45;;
71202;SDS011;58929;47.490;19.090;2023-03-01T05:43:30;26.83;;;14.63;;
71202;SDS011;58929;47.490;19.090;2023-03-01T05:45:59;22.88;;;15.38;;
71202;SDS011;58929;47.490;19.090;2023-03-01T05:48:27;22.13;;;15.13;;
71202;SDS011;58929;47.490;19.090;2023-03-01T05:50:58;22.90;;;14.85;;
71202;SDS011;58929;47.490;19.090;2023-03-01T05:53:26;23.52;;;14.20;;
71202;SDS011;58929;47.490;19.090;2023-03-01T05:55:54;23.83;;;14.80;;
71202;SDS011;58929;47.490;19.090;2023-03-01T05:58:22;20.85;;;14.90;;
71202;SDS011;58929;47.490;19.090;2023-03-01T06:00:50;23.17;;;14.38;;
71202;SDS011;58929;47.490;19.090;2023-03-01T06:03:22;22.75;;;15.23;;
71202;SDS011;58929;47.490;19.090;2023-03-01T06:05:50;24.25;;;14.80;;
71202;SDS011;58929;47.490;19.090;2023-03-01T06:08:23;23.02;;;16.17;;
71202;SDS011;58929;47.490;19.090;2023-03-01T06:10:53;22.42;;;14.13;;
71202;SDS011;58929;47.490;19.090;2023-03-01T06:13:22;26.60;;;16.05;;
71202;SDS011;58929;47.490;19.090;2023-03-01T06:15:50;22.08;;;14.75;;
71202;SDS011;58929;47.490;19.090;2023-03-01T06:18:18;24.20;;;14.88;;
71202;SDS011;58929;47.490;19.090;2023-03-01T06:20:53;21.25;;;15.30;;
71202;SDS011;58929;47.490;19.090;2023-03-01T06:23:22;22.48;;;14.93;;
71202;SDS011;58929;47.490;19.090;2023-03-01T06:25:51;25.92;;;16.58;;
71202;SDS011;58929;47.490;19.090;2023-03-01T06:28:19;25.80;;;16.98;;
71202;SDS011;58929;47.490;19.090;2023-03-01T06:30:47;23.80;;;16.33;;
71202;SDS011;58929;47.490;19.090;2023-03-01T06:33:15;27.27;;;16.75;;
71202;SDS011;58929;47.490;19.090;2023-03-01T06:35:44;26.10;;;17.35;;
71202;SDS011;58929;47.490;19.090;2023-03-01T06:38:13;27.02;;;16.45;;
71202;SDS011;58929;47.490;19.090;2023-03-01T06:40:43;34.95;;;21.20;;
71202;SDS011;58929;47.490;19.090;2023-03-01T06:43:12;27.92;;;17.35;;
71202;SDS011;58929;47.490;19.090;2023-03-01T06:45:39;30.35;;;16.92;;
71202;SDS011;58929;47.490;19.090;2023-03-01T06:48:08;25.20;;;16.75;;
71202;SDS011;58929;47.490;19.090;2023-03-01T06:50:36;26.02;;;17.42;;
71202;SDS011;58929;47.490;19.090;2023-03-01T06:53:04;30.15;;;16.98;;
71202;SDS011;58929;47.490;19.090;2023-03-01T06:55:33;26.10;;;17.25;;
71202;SDS011;58929;47.490;19.090;2023-03-01T06:58:02;28.13;;;17.80;;
71202;SDS011;58929;47.490;19.090;2023-03-01T07:00:32;23.95;;;16.58;;
71202;SDS011;58929;47.490;19.090;2023-03-01T07:03:00;26.38;;;15.90;;
71202;SDS011;58929;47.490;19.090;2023-03-01T07:05:29;24.98;;;14.65;;
71202;SDS011;58929;47.490;19.090;2023-03-01T07:07:57;21.08;;;14.13;;
71202;SDS011;58929;47.490;19.090;2023-03-01T07:10:25;31.45;;;14.35;;
71202;SDS011;58929;47.490;19.090;2023-03-01T07:12:55;29.38;;;16.42;;
71202;SDS011;58929;47.490;19.090;2023-03-01T07:15:23;26.42;;;15.85;;
71202;SDS011;58929;47.490;19.090;2023-03-01T07:17:51;31.77;;;16.77;;
71202;SDS011;58929;47.490;19.090;2023-03-01T07:20:19;21.45;;;15.55;;
71202;SDS011;58929;47.490;19.090;2023-03-01T07:22:51;31.75;;;15.57;;
71202;SDS011;58929;47.490;19.090;2023-03-01T07:25:19;29.38;;;16.17;;
71202;SDS011;58929;47.490;19.090;2023-03-01T07:27:48;28.92;;;15.93;;
71202;SDS011;58929;47.490;19.090;2023-03-01T07:30:18;26.23;;;15.18;;
71202;SDS011;58929;47.490;19.090;2023-03-01T07:32:46;23.88;;;14.85;;
71202;SDS011;58929;47.490;19.090;2023-03-01T07:35:14;23.52;;;14.88;;
71202;SDS011;58929;47.490;19.090;2023-03-01T07:37:42;22.85;;;13.60;;
71202;SDS011;58929;47.490;19.090;2023-03-01T07:40:10;20.58;;;14.15;;
71202;SDS011;58929;47.490;19.090;2023-03-01T07:42:39;22.77;;;13.52;;
71202;SDS011;58929;47.490;19.090;2023-03-01T07:45:07;20.02;;;12.25;;
71202;SDS011;58929;47.490;19.090;2023-03-01T07:47:37;21.10;;;12.88;;
71202;SDS011;58929;47.490;19.090;2023-03-01T07:50:05;21.80;;;12.73;;
71202;SDS011;58929;47.490;19.090;2023-03-01T07:52:33;21.63;;;13.52;;
71202;SDS011;58929;47.490;19.090;2023-03-01T07:55:01;18.48;;;12.30;;
71202;SDS011;58929;47.490;19.090;2023-03-01T07:57:29;19.00;;;13.15;;
71202;SDS011;58929;47.490;19.090;2023-03-01T07:59:57;25.08;;;14.38;;
71202;SDS011;58929;47.490;19.090;2023-03-01T08:02:25;22.58;;;14.55;;
71202;SDS011;58929;47.490;19.090;2023-03-01T08:04:55;20.38;;;13.35;;
71202;SDS011;58929;47.490;19.090;2023-03-01T08:07:24;23.73;;;13.55;;
71202;SDS011;58929;47.490;19.090;2023-03-01T08:09:51;24.25;;;14.68;;
71202;SDS011;58929;47.490;19.090;2023-03-01T08:12:19;18.45;;;13.18;;
71202;SDS011;58929;47.490;19.090;2023-03-01T08:14:47;24.02;;;14.55;;
71202;SDS011;58929;47.490;19.090;2023-03-01T08:17:16;22.50;;;13.80;;
71202;SDS011;58929;47.490;19.090;2023-03-01T08:19:44;22.45;;;15.23;;
71202;SDS011;58929;47.490;19.090;2023-03-01T08:22:13;20.40;;;13.45;;
71202;SDS011;58929;47.490;19.090;2023-03-01T08:24:41;30.38;;;14.57;;
71202;SDS011;58929;47.490;19.090;2023-03-01T08:27:09;25.17;;;14.23;;
71202;SDS011;58929;47.490;19.090;2023-03-01T08:29:38;28.40;;;15.23;;
71202;SDS011;58929;47.490;19.090;2023-03-01T08:32:06;26.50;;;15.88;;
71202;SDS011;58929;47.490;19.090;2023-03-01T08:34:34;29.25;;;16.23;;
71202;SDS011;58929;47.490;19.090;2023-03-01T08:37:03;31.02;;;15.68;;
71202;SDS011;58929;47.490;19.090;2023-03-01T08:39:32;26.75;;;13.98;;
71202;SDS011;58929;47.490;19.090;2023-03-01T08:42:00;25.02;;;15.05;;
71202;SDS011;58929;47.490;19.090;2023-03-01T08:44:28;23.95;;;14.02;;
71202;SDS011;58929;47.490;19.090;2023-03-01T08:46:56;29.98;;;15.82;;
71202;SDS011;58929;47.490;19.090;2023-03-01T08:49:24;24.52;;;14.90;;
71202;SDS011;58929;47.490;19.090;2023-03-01T08:51:53;20.98;;;15.13;;
71202;SDS011;58929;47.490;19.090;2023-03-01T08:54:21;25.08;;;15.48;;
71202;SDS011;58929;47.490;19.090;2023-03-01T08:56:50;27.80;;;15.73;;
71202;SDS011;58929;47.490;19.090;2023-03-01T08:59:18;32.17;;;16.80;;
71202;SDS011;58929;47.490;19.090;2023-03-01T09:01:46;26.95;;;16.75;;
71202;SDS011;58929;47.490;19.090;2023-03-01T09:04:14;32.30;;;17.13;;
71202;SDS011;58929;47.490;19.090;2023-03-01T09:06:42;28.95;;;17.52;;
71202;SDS011;58929;47.490;19.090;2023-03-01T09:09:12;26.58;;;16.15;;
71202;SDS011;58929;47.490;19.090;2023-03-01T09:11:41;26.38;;;16.27;;
71202;SDS011;58929;47.490;19.090;2023-03-01T09:14:10;26.50;;;18.02;;
71202;SDS011;58929;47.490;19.090;2023-03-01T09:16:38;31.55;;;17.50;;
71202;SDS011;58929;47.490;19.090;2023-03-01T09:19:08;32.13;;;17.15;;
71202;SDS011;58929;47.490;19.090;2023-03-01T09:21:36;31.27;;;17.65;;
71202;SDS011;58929;47.490;19.090;2023-03-01T09:24:06;25.05;;;16.55;;
71202;SDS011;58929;47.490;19.090;2023-03-01T09:26:39;27.05;;;16.77;;
71202;SDS011;58929;47.490;19.090;2023-03-01T09:29:07;33.17;;;17.52;;
71202;SDS011;58929;47.490;19.090;2023-03-01T09:31:38;24.75;;;16.42;;
71202;SDS011;58929;47.490;19.090;2023-03-01T09:34:06;25.02;;;16.27;;
71202;SDS011;58929;47.490;19.090;2023-03-01T09:36:35;23.20;;;15.48;;
71202;SDS011;58929;47.490;19.090;2023-03-01T09:39:03;27.17;;;15.52;;
71202;SDS011;58929;47.490;19.090;2023-03-01T09:41:42;28.02;;;17.65;;
71202;SDS011;58929;47.490;19.090;2023-03-01T09:44:13;48.42;;;25.25;;
71202;SDS011;58929;47.490;19.090;2023-03-01T09:46:45;22.00;;;14.98;;
71202;SDS011;58929;47.490;19.090;2023-03-01T09:49:14;28.17;;;15.65;;
71202;SDS011;58929;47.490;19.090;2023-03-01T09:51:47;31.52;;;16.85;;
71202;SDS011;58929;47.490;19.090;2023-03-01T09:54:18;26.10;;;15.02;;
71202;SDS011;58929;47.490;19.090;2023-03-01T09:56:46;23.45;;;15.65;;
71202;SDS011;58929;47.490;19.090;2023-03-01T09:59:20;21.52;;;14.95;;
71202;SDS011;58929;47.490;19.090;2023-03-01T10:01:52;28.42;;;16.08;;
71202;SDS011;58929;47.490;19.090;2023-03-01T10:04:27;23.67;;;15.77;;
71202;SDS011;58929;47.490;19.090;2023-03-01T10:06:58;26.23;;;14.60;;
71202;SDS011;58929;47.490;19.090;2023-03-01T10:09:30;27.67;;;15.90;;
71202;SDS011;58929;47.490;19.090;2023-03-01T10:11:59;22.95;;;14.63;;
71202;SDS011;58929;47.490;19.090;2023-03-01T10:14:30;23.52;;;14.63;;
71202;SDS011;58929;47.490;19.090;2023-03-01T10:17:01;19.92;;;14.68;;
71202;SDS011;58929;47.490;19.090;2023-03-01T10:19:31;22.00;;;13.68;;
71202;SDS011;58929;47.490;19.090;2023-03-01T10:22:01;34.58;;;16.02;;
71202;SDS011;58929;47.490;19.090;2023-03-01T10:24:31;23.42;;;14.40;;
71202;SDS011;58929;47.490;19.090;2023-03-01T10:27:03;26.17;;;16.13;;
71202;SDS011;58929;47.490;19.090;2023-03-01T10:29:34;27.70;;;14.70;;
71202;SDS011;58929;47.490;19.090;2023-03-01T10:32:06;27.45;;;14.30;;
71202;SDS011;58929;47.490;19.090;2023-03-01T10:34:34;20.10;;;13.98;;
71202;SDS011;58929;47.490;19.090;2023-03-01T10:37:08;21.90;;;14.35;;
71202;SDS011;58929;47.490;19.090;2023-03-01T10:39:36;22.40;;;14.63;;
71202;SDS011;58929;47.490;19.090;2023-03-01T10:42:05;20.25;;;14.48;;
71202;SDS011;58929;47.490;19.090;2023-03-01T10:44:44;25.30;;;14.50;;
71202;SDS011;58929;47.490;19.090;2023-03-01T10:47:15;21.35;;;13.90;;
71202;SDS011;58929;47.490;19.090;2023-03-01T10:52:36;16.48;;;12.48;;
71202;SDS011;58929;47.490;19.090;2023-03-01T10:55:08;16.85;;;12.38;;
71202;SDS011;58929;47.490;19.090;2023-03-01T10:57:50;19.85;;;13.05;;
71202;SDS011;58929;47.490;19.090;2023-03-01T11:00:33;21.63;;;13.48;;
71202;SDS011;58929;47.490;19.090;2023-03-01T11:03:14;16.80;;;11.55;;
71202;SDS011;58929;47.490;19.090;2023-03-01T11:05:55;18.40;;;11.10;;
71202;SDS011;58929;47.490;19.090;2023-03-01T11:08:30;21.25;;;12.18;;
71202;SDS011;58929;47.490;19.090;2023-03-01T11:11:13;20.03;;;11.97;;
71202;SDS011;58929;47.490;19.090;2023-03-01T11:13:47;19.52;;;10.80;;
71202;SDS011;58929;47.490;19.090;2023-03-01T11:16:22;19.50;;;11.68;;
71202;SDS011;58929;47.490;19.090;2023-03-01T11:18:57;17.50;;;11.27;;
71202;SDS011;58929;47.490;19.090;2023-03-01T11:21:25;23.23;;;12.18;;
71202;SDS011;58929;47.490;19.090;2023-03-01T11:23:54;16.83;;;10.48;;
71202;SDS011;58929;47.490;19.090;2023-03-01T11:26:23;21.10;;;11.70;;
71202;SDS011;58929;47.490;19.090;2023-03-01T11:28:51;17.33;;;11.00;;
71202;SDS011;58929;47.490;19.090;2023-03-01T11:31:21;14.50;;;10.48;;
71202;SDS011;58929;47.490;19.090;2023-03-01T11:33:53;14.98;;;9.77;;
71202;SDS011;58929;47.490;19.090;2023-03-01T11:36:25;13.98;;;10.00;;
71202;SDS011;58929;47.490;19.090;2023-03-01T11:38:54;20.50;;;14.80;;
71202;SDS011;58929;47.490;19.090;2023-03-01T11:41:23;19.60;;;11.45;;
71202;SDS011;58929;47.490;19.090;2023-03-01T11:43:53;13.77;;;9.70;;
71202;SDS011;58929;47.490;19.090;2023-03-01T11:46:32;18.50;;;9.95;;
71202;SDS011;58929;47.490;19.090;2023-03-01T11:49:04;19.25;;;12.40;;
71202;SDS011;58929;47.490;19.090;2023-03-01T11:51:41;21.67;;;10.90;;
71202;SDS011;58929;47.490;19.090;2023-03-01T11:54:13;17.48;;;10.63;;
71202;SDS011;58929;47.490;19.090;2023-03-01T11:56:43;14.40;;;9.85;;
71202;SDS011;58929;47.490;19.090;2023-03-01T11:59:18;21.88;;;11.32;;
71202;SDS011;58929;47.490;19.090;2023-03-01T12:01:53;17.05;;;9.68;;
71202;SDS011;58929;47.490;19.090;2023-03-01T12:04:32;12.02;;;9.65;;
71202;SDS011;58929;47.490;19.090;2023-03-01T12:07:06;15.20;;;9.88;;
71202;SDS011;58929;47.490;19.090;2023-03-01T12:10:13;23.67;;;10.95;;
71202;SDS011;58929;47.490;19.090;2023-03-01T12:20:53;25.63;;;10.57;;
71202;SDS011;58929;47.490;19.090;2023-03-01T12:23:30;13.55;;;10.07;;
71202;SDS011;58929;47.490;19.090;2023-03-01T12:26:02;13.82;;;8.23;;
71202;SDS011;58929;47.490;19.090;2023-03-01T12:28:45;14.23;;;8.55;;
71202;SDS011;58929;47.490;19.090;2023-03-01T12:34:07;13.65;;;8.63;;
71202;SDS011;58929;47.490;19.090;2023-03-01T12:36:51;11.68;;;8.40;;
71202;SDS011;58929;47.490;19.090;2023-03-01T12:39:34;12.20;;;7.03;;
71202;SDS011;58929;47.490;19.090;2023-03-01T12:42:06;12.00;;;7.90;;
71202;SDS011;58929;47.490;19.090;2023-03-01T12:44:39;11.07;;;7.38;;
71202;SDS011;58929;47.490;19.090;2023-03-01T12:47:13;13.50;;;7.95;;
71202;SDS011;58929;47.490;19.090;2023-03-01T12:49:47;13.70;;;7.60;;
71202;SDS011;58929;47.490;19.090;2023-03-01T12:52:19;17.83;;;10.40;;
71202;SDS011;58929;47.490;19.090;2023-03-01T12:54:50;17.60;;;8.82;;
71202;SDS011;58929;47.490;19.090;2023-03-01T12:57:21;10.27;;;8.05;;
71202;SDS011;58929;47.490;19.090;2023-03-01T12:59:59;11.77;;;7.38;;
71202;SDS011;58929;47.490;19.090;2023-03-01T13:02:30;13.23;;;7.53;;
71202;SDS011;58929;47.490;19.090;2023-03-01T13:05:05;13.07;;;7.70;;
71202;SDS011;58929;47.490;19.090;2023-03-01T13:07:35;18.60;;;7.78;;
71202;SDS011;58929;47.490;19.090;2023-03-01T13:12:52;9.38;;;6.65;;
71202;SDS011;58929;47.490;19.090;2023-03-01T13:15:25;17.27;;;7.43;;
71202;SDS011;58929;47.490;19.090;2023-03-01T13:17:53;7.57;;;6.15;;
71202;SDS011;58929;47.490;19.090;2023-03-01T13:20:23;10.32;;;5.70;;
71202;SDS011;58929;47.490;19.090;2023-03-01T13:23:00;11.15;;;6.15;;
71202;SDS011;58929;47.490;19.090;2023-03-01T13:25:28;8.48;;;5.60;;
71202;SDS011;58929;47.490;19.090;2023-03-01T13:38:58;14.10;;;7.00;;
71202;SDS011;58929;47.490;19.090;2023-03-01T13:44:11;9.13;;;5.78;;
71202;SDS011;58929;47.490;19.090;2023-03-01T13:46:40;9.45;;;5.40;;
71202;SDS011;58929;47.490;19.090;2023-03-01T13:49:09;10.80;;;5.28;;
71202;SDS011;58929;47.490;19.090;2023-03-01T13:51:40;16.67;;;5.75;;
71202;SDS011;58929;47.490;19.090;2023-03-01T13:54:11;10.18;;;5.18;;
71202;SDS011;58929;47.490;19.090;2023-03-01T13:56:42;12.60;;;5.35;;
71202;SDS011;58929;47.490;19.090;2023-03-01T13:59:13;26.38;;;6.15;;
71202;SDS011;58929;47.490;19.090;2023-03-01T14:01:41;14.00;;;5.32;;
71202;SDS011;58929;47.490;19.090;2023-03-01T14:04:19;10.65;;;5.40;;
71202;SDS011;58929;47.490;19.090;2023-03-01T14:06:48;9.48;;;5.82;;
71202;SDS011;58929;47.490;19.090;2023-03-01T14:09:18;13.18;;;10.13;;
71202;SDS011;58929;47.490;19.090;2023-03-01T14:11:54;8.68;;;6.47;;
71202;SDS011;58929;47.490;19.090;2023-03-01T14:14:30;6.23;;;5.13;;
71202;SDS011;58929;47.490;19.090;2023-03-01T14:17:02;6.25;;;4.40;;
71202;SDS011;58929;47.490;19.090;2023-03-01T14:19:33;12.80;;;5.00;;
71202;SDS011;58929;47.490;19.090;2023-03-01T14:22:03;9.02;;;4.55;;
71202;SDS011;58929;47.490;19.090;2023-03-01T14:24:35;6.60;;;4.95;;
71202;SDS011;58929;47.490;19.090;2023-03-01T14:27:08;9.32;;;5.30;;
71202;SDS011;58929;47.490;19.090;2023-03-01T14:29:37;9.52;;;5.25;;
71202;SDS011;58929;47.490;19.090;2023-03-01T14:32:10;13.27;;;5.47;;
71202;SDS011;58929;47.490;19.090;2023-03-01T14:34:42;9.85;;;4.95;;
71202;SDS011;58929;47.490;19.090;2023-03-01T14:37:10;9.80;;;5.18;;
71202;SDS011;58929;47.490;19.090;2023-03-01T14:39:40;8.93;;;4.80;;
71202;SDS011;58929;47.490;19.090;2023-03-01T14:42:08;14.15;;;5.05;;
71202;SDS011;58929;47.490;19.090;2023-03-01T14:44:42;9.52;;;5.40;;
71202;SDS011;58929;47.490;19.090;2023-03-01T14:47:11;12.02;;;5.35;;
71202;SDS011;58929;47.490;19.090;2023-03-01T14:49:40;12.15;;;5.55;;
71202;SDS011;58929;47.490;19.090;2023-03-01T14:52:16;14.70;;;5.97;;
71202;SDS011;58929;47.490;19.090;2023-03-01T14:54:47;12.93;;;5.93;;
71202;SDS011;58929;47.490;19.090;2023-03-01T14:57:16;12.10;;;5.50;;
71202;SDS011;58929;47.490;19.090;2023-03-01T14:59:45;12.40;;;5.95;;
71202;SDS011;58929;47.490;19.090;2023-03-01T15:02:15;11.65;;;6.05;;